createdAt,value
2023-03-14T00:02:40.267Z,7.70
2023-03-14T00:07:41.854Z,5.80
2023-03-14T00:12:43.546Z,6.50
2023-03-14T00:17:45.510Z,7.90
2023-03-14T00:22:47.085Z,7.30
2023-03-14T00:27:51.718Z,5.50
2023-03-14T00:32:53.237Z,3.90
2023-03-14T00:37:54.755Z,6.70
2023-03-14T00:42:56.242Z,4.60
2023-03-14T00:47:57.726Z,6.50
2023-03-14T00:52:59.827Z,7.20
2023-03-14T00:58:01.429Z,7.10
2023-03-14T01:03:04.162Z,5.00
2023-03-14T01:08:07.728Z,6.40
2023-03-14T01:13:09.842Z,7.10
2023-03-14T01:18:11.356Z,5.10
2023-03-14T01:23:12.849Z,6.30
2023-03-14T01:28:14.744Z,6.90
2023-03-14T01:33:16.210Z,4.50
2023-03-14T01:38:17.709Z,5.20
2023-03-14T01:43:21.801Z,5.70
2023-03-14T01:48:23.736Z,6.30
2023-03-14T01:53:25.523Z,5.50
2023-03-14T01:58:31.111Z,6.50
2023-03-14T02:03:39.716Z,5.30
2023-03-14T02:08:41.594Z,5.60
2023-03-14T02:13:43.797Z,5.90
2023-03-14T02:18:45.400Z,5.60
2023-03-14T02:24:03.395Z,7.60
2023-03-14T02:29:05.054Z,8.20
2023-03-14T02:34:07.210Z,11.10
2023-03-14T02:39:18.553Z,7.30
2023-03-14T02:44:20.055Z,6.50
2023-03-14T02:49:21.692Z,5.00
2023-03-14T02:54:23.494Z,5.60
2023-03-14T02:59:25.138Z,5.20
2023-03-14T03:04:26.636Z,5.30
2023-03-14T03:09:28.206Z,5.00
2023-03-14T03:14:29.720Z,5.10
2023-03-14T03:19:32.363Z,5.30
2023-03-14T03:24:34.005Z,6.10
2023-03-14T03:29:35.540Z,5.70
2023-03-14T03:34:37.209Z,5.00
2023-03-14T03:39:38.719Z,6.40
2023-03-14T03:44:40.265Z,6.00
2023-03-14T03:49:41.855Z,6.00
2023-03-14T03:54:43.376Z,4.90
2023-03-14T03:59:44.881Z,6.30
2023-03-14T04:04:46.366Z,6.70
2023-03-14T04:09:47.961Z,5.60
2023-03-14T04:14:49.500Z,5.30
2023-03-14T04:19:52.580Z,7.80
2023-03-14T04:24:54.313Z,5.50
2023-03-14T04:29:55.893Z,5.20
2023-03-14T04:34:57.408Z,6.10
2023-03-14T04:39:58.943Z,6.80
2023-03-14T04:45:01.462Z,4.80
2023-03-14T04:50:03.042Z,5.70
2023-03-14T04:55:05.012Z,4.70
2023-03-14T05:00:08.265Z,5.30
2023-03-14T05:05:09.801Z,5.10
2023-03-14T05:10:11.642Z,5.20
2023-03-14T05:15:13.151Z,4.80
2023-03-14T05:20:14.857Z,6.50
2023-03-14T05:25:16.381Z,6.10
2023-03-14T05:30:17.954Z,6.30
2023-03-14T05:35:19.582Z,7.40
2023-03-14T05:40:21.162Z,6.10
2023-03-14T05:45:22.672Z,5.20
2023-03-14T05:50:24.186Z,5.30
2023-03-14T05:55:25.756Z,6.50
2023-03-14T06:00:27.793Z,5.80
2023-03-14T06:05:29.303Z,6.10
2023-03-14T06:10:30.969Z,6.00
2023-03-14T06:15:34.096Z,7.90
2023-03-14T06:20:42.053Z,5.70
2023-03-14T06:25:43.799Z,4.60
2023-03-14T06:30:45.440Z,5.30
2023-03-14T06:35:47.366Z,7.10
2023-03-14T06:40:48.946Z,5.90
2023-03-14T06:45:50.476Z,5.70
2023-03-14T06:50:52.000Z,4.80
2023-03-14T06:55:53.482Z,4.80
2023-03-14T07:00:58.635Z,5.40
2023-03-14T07:06:00.750Z,5.20
2023-03-14T07:11:02.274Z,6.90
2023-03-14T07:16:04.318Z,7.10
2023-03-14T07:21:07.816Z,6.20
2023-03-14T07:26:09.399Z,7.40
2023-03-14T07:31:11.267Z,6.30
2023-03-14T07:36:13.440Z,6.50
2023-03-14T07:41:15.266Z,6.90
2023-03-14T07:46:17.158Z,5.10
2023-03-14T07:51:18.961Z,4.90
2023-03-14T07:56:20.472Z,5.10
2023-03-14T08:01:22.028Z,4.20
2023-03-14T08:06:23.559Z,4.00
2023-03-14T08:11:25.074Z,6.10
2023-03-14T08:16:26.771Z,4.60
2023-03-14T08:21:32.302Z,5.10
2023-03-14T08:26:34.001Z,3.70
2023-03-14T08:31:37.093Z,3.90
2023-03-14T08:36:39.174Z,5.20
2023-03-14T08:41:45.452Z,5.70
2023-03-14T08:46:47.098Z,5.30
2023-03-14T08:51:48.951Z,4.30
2023-03-14T08:56:50.454Z,5.70
2023-03-14T09:01:52.013Z,4.50
2023-03-14T09:06:53.529Z,4.60
2023-03-14T09:11:55.548Z,5.20
2023-03-14T09:16:57.200Z,4.70
2023-03-14T09:21:58.791Z,3.70
2023-03-14T09:27:00.358Z,5.50
2023-03-14T09:32:02.039Z,4.50
2023-03-14T09:37:03.854Z,5.40
2023-03-14T09:42:09.261Z,4.40
2023-03-14T09:47:14.385Z,4.20
2023-03-14T09:52:20.417Z,4.50
2023-03-14T09:57:25.770Z,5.80
2023-03-14T10:02:36.582Z,4.30
2023-03-14T10:07:39.283Z,3.80
2023-03-14T10:12:40.893Z,5.20
2023-03-14T10:17:45.485Z,8.30
2023-03-14T10:22:51.845Z,4.60
2023-03-14T10:27:53.354Z,3.80
2023-03-14T10:32:54.912Z,3.50
2023-03-14T10:38:04.763Z,4.20
2023-03-14T10:43:14.257Z,4.10
2023-03-14T10:48:15.722Z,3.90
2023-03-14T10:53:19.710Z,3.40
2023-03-14T10:58:24.518Z,4.00
2023-03-14T11:03:30.100Z,4.30
2023-03-14T11:08:37.371Z,4.80
2023-03-14T11:13:55.323Z,3.90
2023-03-14T11:19:18.667Z,3.80
2023-03-14T11:24:32.509Z,4.80
2023-03-14T11:29:42.945Z,3.80
2023-03-14T11:34:56.113Z,4.60
2023-03-14T11:40:06.780Z,5.40
2023-03-14T11:45:20.035Z,4.30
2023-03-14T11:50:29.680Z,4.30
2023-03-14T11:55:35.352Z,3.50
2023-03-14T12:00:39.698Z,5.20
2023-03-14T12:05:58.835Z,4.00
2023-03-14T12:11:05.640Z,5.20
2023-03-14T12:16:28.345Z,4.30
2023-03-14T12:21:51.335Z,10.10
2023-03-14T12:26:58.120Z,4.90
2023-03-14T12:32:03.013Z,4.10
2023-03-14T12:37:14.289Z,4.70
2023-03-14T12:42:42.443Z,4.70
2023-03-14T12:48:17.591Z,4.70
2023-03-14T12:53:33.853Z,7.00
2023-03-14T12:58:38.023Z,3.50
2023-03-14T13:03:56.467Z,4.90
2023-03-14T13:08:58.291Z,5.90
2023-03-14T13:14:00.499Z,5.60
2023-03-14T13:19:05.396Z,11.80
2023-03-14T13:24:21.486Z,7.40
2023-03-14T13:29:25.982Z,9.80
2023-03-14T13:34:35.490Z,12.50
2023-03-14T13:39:40.856Z,8.20
2023-03-14T13:44:42.893Z,8.70
2023-03-14T13:49:45.108Z,11.40
2023-03-14T13:54:46.639Z,6.90
2023-03-14T14:00:11.052Z,11.20
2023-03-14T14:05:13.673Z,5.90
2023-03-14T14:10:15.605Z,6.50
2023-03-14T14:15:28.031Z,6.40
2023-03-14T14:20:45.854Z,6.40
2023-03-14T14:25:50.309Z,5.10
2023-03-14T14:31:07.217Z,6.70
2023-03-14T14:36:22.921Z,9.40
2023-03-14T14:41:28.729Z,6.50
2023-03-14T14:46:34.680Z,6.80
2023-03-14T14:51:43.531Z,6.60
2023-03-14T14:56:54.112Z,5.50
2023-03-14T15:02:00.778Z,8.80
2023-03-14T15:07:02.981Z,11.10
2023-03-14T15:12:05.405Z,13.30
2023-03-14T15:17:12.021Z,8.00
2023-03-14T15:22:16.821Z,16.80
2023-03-14T15:27:19.293Z,14.20
2023-03-14T15:32:20.812Z,16.90
2023-03-14T15:37:23.059Z,14.10
2023-03-14T15:42:25.248Z,10.40
2023-03-14T15:47:28.556Z,24.40
2023-03-14T15:57:32.081Z,19.70
2023-03-14T16:02:33.932Z,22.00
2023-03-14T16:07:35.481Z,45.00
2023-03-14T16:12:37.068Z,42.50
2023-03-14T16:17:41.116Z,20.40
2023-03-14T16:22:42.910Z,13.50
2023-03-14T16:27:44.702Z,12.30
2023-03-14T16:32:48.442Z,21.30
2023-03-14T16:37:50.002Z,21.40
2023-03-14T16:43:14.510Z,13.40
2023-03-14T16:48:13.321Z,11.30
2023-03-14T16:53:14.839Z,15.10
2023-03-14T16:58:16.804Z,14.30
2023-03-14T17:03:18.435Z,15.50
2023-03-14T17:08:21.382Z,17.70
2023-03-14T17:13:25.992Z,14.20
2023-03-14T17:18:29.592Z,17.20
2023-03-14T17:23:33.108Z,24.70
2023-03-14T17:33:37.131Z,59.00
2023-03-14T17:38:39.374Z,36.80
2023-03-14T17:43:41.824Z,53.60
2023-03-14T17:48:48.673Z,52.10
2023-03-14T17:53:50.402Z,33.80
2023-03-14T17:58:52.382Z,31.60
2023-03-14T18:03:56.542Z,29.20
2023-03-14T18:09:00.000Z,21.20
2023-03-14T18:14:04.814Z,19.50
2023-03-14T18:19:07.195Z,26.90
2023-03-14T18:24:08.805Z,46.80
2023-03-14T18:29:14.397Z,28.60
2023-03-14T18:34:17.011Z,19.10
2023-03-14T18:39:18.660Z,15.10
2023-03-14T18:44:21.318Z,18.90
2023-03-14T18:49:22.987Z,13.60
2023-03-14T18:54:24.521Z,10.90
2023-03-14T18:59:26.931Z,11.20
2023-03-14T19:04:28.495Z,11.30
2023-03-14T19:09:30.052Z,15.10
2023-03-14T19:14:31.839Z,10.70
2023-03-14T19:19:33.444Z,11.50
2023-03-14T19:24:35.247Z,13.40
2023-03-14T19:29:42.155Z,14.10
2023-03-14T19:34:45.368Z,13.60
2023-03-14T19:39:48.569Z,35.20
2023-03-14T19:44:51.077Z,17.60
2023-03-14T19:49:52.583Z,16.00
2023-03-14T19:54:54.749Z,13.40
2023-03-14T19:59:57.831Z,16.90
2023-03-14T20:05:02.324Z,15.20
2023-03-14T20:10:04.439Z,13.30
2023-03-14T20:15:06.941Z,11.70
2023-03-14T20:20:09.901Z,13.70
2023-03-14T20:25:14.254Z,15.90
2023-03-14T20:30:27.838Z,14.40
2023-03-14T20:35:29.420Z,13.40
2023-03-14T20:40:31.393Z,12.50
2023-03-14T20:45:34.974Z,14.00
2023-03-14T20:55:37.996Z,11.20
2023-03-14T21:00:40.841Z,21.20
2023-03-14T21:05:48.722Z,20.10
2023-03-14T21:10:52.199Z,17.40
2023-03-14T21:15:54.076Z,17.60
2023-03-14T21:20:56.763Z,16.90
2023-03-14T21:25:58.304Z,19.10
2023-03-14T21:31:07.863Z,21.00
2023-03-14T21:36:09.535Z,20.70
2023-03-14T21:41:11.103Z,16.50
2023-03-14T21:46:15.696Z,16.70
2023-03-14T21:51:17.607Z,11.90
2023-03-14T21:56:19.131Z,13.50
2023-03-14T22:01:22.752Z,12.00
2023-03-14T22:11:25.824Z,10.00
2023-03-14T22:16:27.346Z,10.70
2023-03-14T22:21:28.821Z,9.20
2023-03-14T22:26:30.353Z,7.60
2023-03-14T22:31:32.069Z,12.90
2023-03-14T22:36:33.688Z,10.00
2023-03-14T22:41:35.774Z,10.00
2023-03-14T22:46:37.264Z,7.30
2023-03-14T22:51:39.455Z,10.70
2023-03-14T22:56:41.600Z,15.60
2023-03-14T23:01:43.100Z,8.20
2023-03-14T23:06:44.898Z,8.70
2023-03-14T23:11:46.510Z,12.80
2023-03-14T23:16:48.040Z,8.30
2023-03-14T23:21:49.541Z,8.20
2023-03-14T23:26:51.793Z,9.50
2023-03-14T23:31:53.293Z,8.00
2023-03-14T23:36:54.826Z,8.90
2023-03-14T23:41:56.325Z,8.50
2023-03-14T23:46:57.988Z,7.70
2023-03-14T23:51:59.516Z,9.00
2023-03-14T23:57:02.515Z,18.10
